sensor_id;sensor_type;location;lat;lon;timestamp;P1;durP1;ratioP1;P2;durP2;ratioP2
77466;SDS011;66564;42.482;25.548;2024-02-23T00:01:06;20.50;;;11.73;;
77466;SDS011;66564;42.482;25.548;2024-02-23T00:03:32;16.45;;;10.35;;
77466;SDS011;66564;42.482;25.548;2024-02-23T00:05:59;18.08;;;11.23;;
77466;SDS011;66564;42.482;25.548;2024-02-23T00:08:25;17.48;;;11.38;;
77466;SDS011;66564;42.482;25.548;2024-02-23T00:10:50;18.20;;;10.40;;
77466;SDS011;66564;42.482;25.548;2024-02-23T00:13:16;17.15;;;10.27;;
77466;SDS011;66564;42.482;25.548;2024-02-23T00:15:41;21.17;;;10.35;;
77466;SDS011;66564;42.482;25.548;2024-02-23T00:18:08;18.17;;;10.23;;
77466;SDS011;66564;42.482;25.548;2024-02-23T00:20:34;18.42;;;10.63;;
77466;SDS011;66564;42.482;25.548;2024-02-23T00:22:59;20.48;;;11.93;;
77466;SDS011;66564;42.482;25.548;2024-02-23T00:25:25;17.48;;;11.57;;
77466;SDS011;66564;42.482;25.548;2024-02-23T00:27:50;20.33;;;10.48;;
77466;SDS011;66564;42.482;25.548;2024-02-23T00:30:16;19.17;;;12.10;;
77466;SDS011;66564;42.482;25.548;2024-02-23T00:32:41;19.13;;;11.50;;
77466;SDS011;66564;42.482;25.548;2024-02-23T00:35:07;18.90;;;11.27;;
77466;SDS011;66564;42.482;25.548;2024-02-23T00:37:32;19.05;;;11.48;;
77466;SDS011;66564;42.482;25.548;2024-02-23T00:40:03;19.67;;;11.70;;
77466;SDS011;66564;42.482;25.548;2024-02-23T00:42:31;18.85;;;11.25;;
77466;SDS011;66564;42.482;25.548;2024-02-23T00:44:57;16.92;;;10.55;;
77466;SDS011;66564;42.482;25.548;2024-02-23T00:47:23;21.17;;;11.77;;
77466;SDS011;66564;42.482;25.548;2024-02-23T00:49:48;20.08;;;11.52;;
77466;SDS011;66564;42.482;25.548;2024-02-23T00:52:14;17.90;;;11.68;;
77466;SDS011;66564;42.482;25.548;2024-02-23T00:54:39;18.08;;;10.45;;
77466;SDS011;66564;42.482;25.548;2024-02-23T00:57:05;20.13;;;11.43;;
77466;SDS011;66564;42.482;25.548;2024-02-23T00:59:30;19.75;;;11.77;;
77466;SDS011;66564;42.482;25.548;2024-02-23T01:01:56;18.25;;;11.68;;
77466;SDS011;66564;42.482;25.548;2024-02-23T01:04:21;17.83;;;10.93;;
77466;SDS011;66564;42.482;25.548;2024-02-23T01:06:47;20.52;;;11.02;;
77466;SDS011;66564;42.482;25.548;2024-02-23T01:09:12;20.70;;;10.68;;
77466;SDS011;66564;42.482;25.548;2024-02-23T01:11:41;21.02;;;12.45;;
77466;SDS011;66564;42.482;25.548;2024-02-23T01:14:06;18.85;;;11.10;;
77466;SDS011;66564;42.482;25.548;2024-02-23T01:16:32;18.50;;;10.93;;
77466;SDS011;66564;42.482;25.548;2024-02-23T01:18:57;22.05;;;11.23;;
77466;SDS011;66564;42.482;25.548;2024-02-23T01:21:23;18.10;;;11.45;;
77466;SDS011;66564;42.482;25.548;2024-02-23T01:23:48;19.85;;;11.20;;
77466;SDS011;66564;42.482;25.548;2024-02-23T01:26:14;20.67;;;12.23;;
77466;SDS011;66564;42.482;25.548;2024-02-23T01:28:39;21.35;;;12.65;;
77466;SDS011;66564;42.482;25.548;2024-02-23T01:31:08;19.40;;;11.48;;
77466;SDS011;66564;42.482;25.548;2024-02-23T01:33:35;20.50;;;12.27;;
77466;SDS011;66564;42.482;25.548;2024-02-23T01:36:03;22.05;;;12.27;;
77466;SDS011;66564;42.482;25.548;2024-02-23T01:38:32;19.88;;;11.00;;
77466;SDS011;66564;42.482;25.548;2024-02-23T01:40:58;18.20;;;11.07;;
77466;SDS011;66564;42.482;25.548;2024-02-23T01:43:24;21.63;;;11.80;;
77466;SDS011;66564;42.482;25.548;2024-02-23T01:45:49;20.55;;;11.93;;
77466;SDS011;66564;42.482;25.548;2024-02-23T01:48:15;22.92;;;11.93;;
77466;SDS011;66564;42.482;25.548;2024-02-23T01:50:41;19.85;;;11.43;;
77466;SDS011;66564;42.482;25.548;2024-02-23T01:53:08;24.20;;;12.48;;
77466;SDS011;66564;42.482;25.548;2024-02-23T01:55:35;19.27;;;11.45;;
77466;SDS011;66564;42.482;25.548;2024-02-23T01:58:02;22.65;;;12.90;;
77466;SDS011;66564;42.482;25.548;2024-02-23T02:00:29;18.65;;;11.57;;
77466;SDS011;66564;42.482;25.548;2024-02-23T02:02:55;22.08;;;11.95;;
77466;SDS011;66564;42.482;25.548;2024-02-23T02:05:20;21.40;;;11.90;;
77466;SDS011;66564;42.482;25.548;2024-02-23T02:07:46;22.10;;;13.48;;
77466;SDS011;66564;42.482;25.548;2024-02-23T02:10:15;20.17;;;12.38;;
77466;SDS011;66564;42.482;25.548;2024-02-23T02:12:42;21.67;;;12.10;;
77466;SDS011;66564;42.482;25.548;2024-02-23T02:15:08;19.83;;;11.80;;
77466;SDS011;66564;42.482;25.548;2024-02-23T02:17:34;22.35;;;12.30;;
77466;SDS011;66564;42.482;25.548;2024-02-23T02:19:59;18.42;;;11.75;;
77466;SDS011;66564;42.482;25.548;2024-02-23T02:22:29;19.38;;;11.48;;
77466;SDS011;66564;42.482;25.548;2024-02-23T02:24:56;21.23;;;10.57;;
77466;SDS011;66564;42.482;25.548;2024-02-23T02:27:22;17.88;;;10.75;;
77466;SDS011;66564;42.482;25.548;2024-02-23T02:29:49;16.30;;;10.77;;
77466;SDS011;66564;42.482;25.548;2024-02-23T02:32:16;17.42;;;10.43;;
77466;SDS011;66564;42.482;25.548;2024-02-23T02:34:41;18.65;;;11.20;;
77466;SDS011;66564;42.482;25.548;2024-02-23T02:37:07;23.02;;;11.95;;
77466;SDS011;66564;42.482;25.548;2024-02-23T02:39:33;25.10;;;13.27;;
77466;SDS011;66564;42.482;25.548;2024-02-23T02:41:59;25.80;;;14.07;;
77466;SDS011;66564;42.482;25.548;2024-02-23T02:44:25;19.67;;;11.70;;
77466;SDS011;66564;42.482;25.548;2024-02-23T02:46:51;18.90;;;11.05;;
77466;SDS011;66564;42.482;25.548;2024-02-23T02:49:17;17.45;;;11.18;;
77466;SDS011;66564;42.482;25.548;2024-02-23T02:51:42;18.27;;;11.10;;
77466;SDS011;66564;42.482;25.548;2024-02-23T02:54:08;19.02;;;11.57;;
77466;SDS011;66564;42.482;25.548;2024-02-23T02:56:33;22.75;;;11.10;;
77466;SDS011;66564;42.482;25.548;2024-02-23T02:58:59;22.60;;;12.85;;
77466;SDS011;66564;42.482;25.548;2024-02-23T03:01:24;21.17;;;11.77;;
77466;SDS011;66564;42.482;25.548;2024-02-23T03:03:49;17.48;;;10.73;;
77466;SDS011;66564;42.482;25.548;2024-02-23T03:06:15;16.95;;;10.43;;
77466;SDS011;66564;42.482;25.548;2024-02-23T03:08:43;15.60;;;9.73;;
77466;SDS011;66564;42.482;25.548;2024-02-23T03:11:09;16.30;;;10.02;;
77466;SDS011;66564;42.482;25.548;2024-02-23T03:13:35;17.30;;;9.45;;
77466;SDS011;66564;42.482;25.548;2024-02-23T03:16:00;18.95;;;10.40;;
77466;SDS011;66564;42.482;25.548;2024-02-23T03:18:25;19.40;;;10.00;;
77466;SDS011;66564;42.482;25.548;2024-02-23T03:20:52;17.95;;;10.05;;
77466;SDS011;66564;42.482;25.548;2024-02-23T03:23:18;21.58;;;12.15;;
77466;SDS011;66564;42.482;25.548;2024-02-23T03:25:43;20.15;;;12.13;;
77466;SDS011;66564;42.482;25.548;2024-02-23T03:28:09;27.98;;;14.23;;
77466;SDS011;66564;42.482;25.548;2024-02-23T03:30:35;26.95;;;14.63;;
77466;SDS011;66564;42.482;25.548;2024-02-23T03:33:00;28.15;;;14.90;;
77466;SDS011;66564;42.482;25.548;2024-02-23T03:35:26;29.33;;;15.32;;
77466;SDS011;66564;42.482;25.548;2024-02-23T03:37:51;23.58;;;15.05;;
77466;SDS011;66564;42.482;25.548;2024-02-23T03:40:17;24.27;;;13.05;;
77466;SDS011;66564;42.482;25.548;2024-02-23T03:42:44;29.35;;;14.75;;
77466;SDS011;66564;42.482;25.548;2024-02-23T03:45:09;26.08;;;12.75;;
77466;SDS011;66564;42.482;25.548;2024-02-23T03:47:35;22.40;;;12.70;;
77466;SDS011;66564;42.482;25.548;2024-02-23T03:50:00;22.10;;;12.73;;
77466;SDS011;66564;42.482;25.548;2024-02-23T03:52:26;21.63;;;12.93;;
77466;SDS011;66564;42.482;25.548;2024-02-23T03:54:51;23.35;;;13.18;;
77466;SDS011;66564;42.482;25.548;2024-02-23T03:57:19;24.63;;;14.02;;
77466;SDS011;66564;42.482;25.548;2024-02-23T03:59:53;28.40;;;14.90;;
77466;SDS011;66564;42.482;25.548;2024-02-23T04:02:19;24.00;;;14.05;;
77466;SDS011;66564;42.482;25.548;2024-02-23T04:04:45;25.15;;;13.45;;
77466;SDS011;66564;42.482;25.548;2024-02-23T04:07:10;23.65;;;13.05;;
77466;SDS011;66564;42.482;25.548;2024-02-23T04:09:36;25.27;;;12.90;;
77466;SDS011;66564;42.482;25.548;2024-02-23T04:12:01;25.00;;;13.80;;
77466;SDS011;66564;42.482;25.548;2024-02-23T04:14:27;21.40;;;12.85;;
77466;SDS011;66564;42.482;25.548;2024-02-23T04:16:52;24.65;;;13.43;;
77466;SDS011;66564;42.482;25.548;2024-02-23T04:19:18;22.92;;;12.82;;
77466;SDS011;66564;42.482;25.548;2024-02-23T04:21:44;20.35;;;13.20;;
77466;SDS011;66564;42.482;25.548;2024-02-23T04:24:09;22.50;;;13.13;;
77466;SDS011;66564;42.482;25.548;2024-02-23T04:26:35;24.95;;;12.88;;
77466;SDS011;66564;42.482;25.548;2024-02-23T04:29:00;24.25;;;12.95;;
77466;SDS011;66564;42.482;25.548;2024-02-23T04:31:26;23.02;;;12.07;;
77466;SDS011;66564;42.482;25.548;2024-02-23T04:33:51;22.40;;;12.18;;
77466;SDS011;66564;42.482;25.548;2024-02-23T04:36:19;24.10;;;12.80;;
77466;SDS011;66564;42.482;25.548;2024-02-23T04:38:46;25.27;;;12.43;;
77466;SDS011;66564;42.482;25.548;2024-02-23T04:41:11;23.50;;;12.85;;
77466;SDS011;66564;42.482;25.548;2024-02-23T04:43:37;20.83;;;12.60;;
77466;SDS011;66564;42.482;25.548;2024-02-23T04:46:02;19.00;;;11.18;;
77466;SDS011;66564;42.482;25.548;2024-02-23T04:48:28;25.73;;;11.40;;
77466;SDS011;66564;42.482;25.548;2024-02-23T04:50:55;17.58;;;11.35;;
77466;SDS011;66564;42.482;25.548;2024-02-23T04:53:21;16.70;;;10.52;;
77466;SDS011;66564;42.482;25.548;2024-02-23T04:55:47;19.90;;;11.55;;
77466;SDS011;66564;42.482;25.548;2024-02-23T04:58:12;22.60;;;11.30;;
77466;SDS011;66564;42.482;25.548;2024-02-23T05:00:38;19.63;;;11.45;;
77466;SDS011;66564;42.482;25.548;2024-02-23T05:03:03;18.80;;;10.60;;
77466;SDS011;66564;42.482;25.548;2024-02-23T05:05:32;20.23;;;10.98;;
77466;SDS011;66564;42.482;25.548;2024-02-23T05:07:57;20.58;;;12.00;;
77466;SDS011;66564;42.482;25.548;2024-02-23T05:10:24;16.85;;;10.23;;
77466;SDS011;66564;42.482;25.548;2024-02-23T05:12:50;18.45;;;10.80;;
77466;SDS011;66564;42.482;25.548;2024-02-23T05:15:15;17.80;;;10.68;;
77466;SDS011;66564;42.482;25.548;2024-02-23T05:17:41;17.17;;;10.07;;
77466;SDS011;66564;42.482;25.548;2024-02-23T05:20:07;16.45;;;10.02;;
77466;SDS011;66564;42.482;25.548;2024-02-23T05:22:35;28.10;;;11.30;;
77466;SDS011;66564;42.482;25.548;2024-02-23T05:25:01;23.25;;;10.75;;
77466;SDS011;66564;42.482;25.548;2024-02-23T05:27:26;19.38;;;10.20;;
77466;SDS011;66564;42.482;25.548;2024-02-23T05:29:52;20.98;;;10.18;;
77466;SDS011;66564;42.482;25.548;2024-02-23T05:32:18;27.23;;;11.45;;
77466;SDS011;66564;42.482;25.548;2024-02-23T05:34:44;21.27;;;11.60;;
77466;SDS011;66564;42.482;25.548;2024-02-23T05:37:10;18.33;;;11.07;;
77466;SDS011;66564;42.482;25.548;2024-02-23T05:39:35;25.88;;;12.18;;
77466;SDS011;66564;42.482;25.548;2024-02-23T05:42:02;22.40;;;12.23;;
77466;SDS011;66564;42.482;25.548;2024-02-23T05:44:28;24.90;;;13.40;;
77466;SDS011;66564;42.482;25.548;2024-02-23T05:46:54;22.67;;;12.80;;
77466;SDS011;66564;42.482;25.548;2024-02-23T05:49:19;25.98;;;13.50;;
77466;SDS011;66564;42.482;25.548;2024-02-23T05:51:45;24.30;;;13.18;;
77466;SDS011;66564;42.482;25.548;2024-02-23T05:54:10;24.25;;;13.80;;
77466;SDS011;66564;42.482;25.548;2024-02-23T05:56:35;25.63;;;15.02;;
77466;SDS011;66564;42.482;25.548;2024-02-23T05:59:02;24.23;;;13.35;;
77466;SDS011;66564;42.482;25.548;2024-02-23T06:01:28;21.23;;;13.27;;
77466;SDS011;66564;42.482;25.548;2024-02-23T06:03:53;25.60;;;14.95;;
77466;SDS011;66564;42.482;25.548;2024-02-23T06:06:20;27.83;;;14.75;;
77466;SDS011;66564;42.482;25.548;2024-02-23T06:08:45;26.50;;;15.60;;
77466;SDS011;66564;42.482;25.548;2024-02-23T06:11:11;23.08;;;12.80;;
77466;SDS011;66564;42.482;25.548;2024-02-23T06:13:37;24.08;;;13.43;;
77466;SDS011;66564;42.482;25.548;2024-02-23T06:16:03;24.77;;;14.73;;
77466;SDS011;66564;42.482;25.548;2024-02-23T06:18:29;26.13;;;14.98;;
77466;SDS011;66564;42.482;25.548;2024-02-23T06:20:55;28.70;;;14.68;;
77466;SDS011;66564;42.482;25.548;2024-02-23T06:23:20;74.70;;;16.60;;
77466;SDS011;66564;42.482;25.548;2024-02-23T06:25:47;101.55;;;21.15;;
77466;SDS011;66564;42.482;25.548;2024-02-23T06:28:12;33.53;;;15.02;;
77466;SDS011;66564;42.482;25.548;2024-02-23T06:30:38;29.25;;;16.45;;
77466;SDS011;66564;42.482;25.548;2024-02-23T06:33:03;31.30;;;16.52;;
77466;SDS011;66564;42.482;25.548;2024-02-23T06:35:29;23.80;;;14.10;;
77466;SDS011;66564;42.482;25.548;2024-02-23T06:37:55;24.42;;;15.18;;
77466;SDS011;66564;42.482;25.548;2024-02-23T06:40:20;24.52;;;14.68;;
77466;SDS011;66564;42.482;25.548;2024-02-23T06:42:45;21.83;;;14.30;;
77466;SDS011;66564;42.482;25.548;2024-02-23T06:45:11;27.27;;;15.48;;
77466;SDS011;66564;42.482;25.548;2024-02-23T06:47:37;25.35;;;14.95;;
77466;SDS011;66564;42.482;25.548;2024-02-23T06:50:04;25.80;;;15.35;;
77466;SDS011;66564;42.482;25.548;2024-02-23T06:52:30;20.95;;;13.93;;
77466;SDS011;66564;42.482;25.548;2024-02-23T06:54:57;23.25;;;15.00;;
77466;SDS011;66564;42.482;25.548;2024-02-23T06:57:22;23.17;;;13.38;;
77466;SDS011;66564;42.482;25.548;2024-02-23T06:59:50;27.30;;;14.95;;
77466;SDS011;66564;42.482;25.548;2024-02-23T07:02:16;31.92;;;14.77;;
77466;SDS011;66564;42.482;25.548;2024-02-23T07:04:42;20.48;;;13.43;;
77466;SDS011;66564;42.482;25.548;2024-02-23T07:07:07;20.17;;;13.43;;
77466;SDS011;66564;42.482;25.548;2024-02-23T07:09:33;22.35;;;13.13;;
77466;SDS011;66564;42.482;25.548;2024-02-23T07:11:59;23.48;;;13.20;;
77466;SDS011;66564;42.482;25.548;2024-02-23T07:14:25;22.40;;;14.30;;
77466;SDS011;66564;42.482;25.548;2024-02-23T07:16:50;23.52;;;13.63;;
77466;SDS011;66564;42.482;25.548;2024-02-23T07:19:19;20.50;;;13.68;;
77466;SDS011;66564;42.482;25.548;2024-02-23T07:21:45;20.73;;;13.02;;
77466;SDS011;66564;42.482;25.548;2024-02-23T07:24:11;19.38;;;11.75;;
77466;SDS011;66564;42.482;25.548;2024-02-23T07:26:37;22.23;;;14.10;;
77466;SDS011;66564;42.482;25.548;2024-02-23T07:29:02;22.08;;;13.88;;
77466;SDS011;66564;42.482;25.548;2024-02-23T07:31:28;20.02;;;12.60;;
77466;SDS011;66564;42.482;25.548;2024-02-23T07:33:54;20.88;;;13.45;;
77466;SDS011;66564;42.482;25.548;2024-02-23T07:36:19;21.90;;;13.65;;
77466;SDS011;66564;42.482;25.548;2024-02-23T07:38:44;25.63;;;13.65;;
77466;SDS011;66564;42.482;25.548;2024-02-23T07:41:11;20.55;;;13.70;;
77466;SDS011;66564;42.482;25.548;2024-02-23T07:43:38;20.65;;;11.75;;
77466;SDS011;66564;42.482;25.548;2024-02-23T07:46:04;18.85;;;12.00;;
77466;SDS011;66564;42.482;25.548;2024-02-23T07:48:30;17.88;;;12.05;;
77466;SDS011;66564;42.482;25.548;2024-02-23T07:50:56;18.08;;;12.65;;
77466;SDS011;66564;42.482;25.548;2024-02-23T07:53:21;18.73;;;12.48;;
77466;SDS011;66564;42.482;25.548;2024-02-23T07:55:46;22.20;;;12.15;;
77466;SDS011;66564;42.482;25.548;2024-02-23T07:58:12;18.10;;;12.07;;
77466;SDS011;66564;42.482;25.548;2024-02-23T08:00:38;19.33;;;13.73;;
77466;SDS011;66564;42.482;25.548;2024-02-23T08:03:03;18.13;;;13.38;;
77466;SDS011;66564;42.482;25.548;2024-02-23T08:05:29;19.08;;;12.02;;
77466;SDS011;66564;42.482;25.548;2024-02-23T08:07:55;17.25;;;11.10;;
77466;SDS011;66564;42.482;25.548;2024-02-23T08:10:20;13.32;;;9.52;;
77466;SDS011;66564;42.482;25.548;2024-02-23T08:12:46;14.68;;;10.15;;
77466;SDS011;66564;42.482;25.548;2024-02-23T08:15:12;13.73;;;9.57;;
77466;SDS011;66564;42.482;25.548;2024-02-23T08:17:37;12.15;;;9.15;;
77466;SDS011;66564;42.482;25.548;2024-02-23T08:20:03;15.45;;;9.93;;
77466;SDS011;66564;42.482;25.548;2024-02-23T08:22:29;14.50;;;10.02;;
77466;SDS011;66564;42.482;25.548;2024-02-23T08:24:55;12.60;;;9.77;;
77466;SDS011;66564;42.482;25.548;2024-02-23T08:27:20;13.68;;;9.65;;
77466;SDS011;66564;42.482;25.548;2024-02-23T08:29:45;14.45;;;9.45;;
77466;SDS011;66564;42.482;25.548;2024-02-23T08:32:11;12.82;;;8.90;;
77466;SDS011;66564;42.482;25.548;2024-02-23T08:34:40;14.13;;;9.25;;
77466;SDS011;66564;42.482;25.548;2024-02-23T08:37:06;16.38;;;9.88;;
77466;SDS011;66564;42.482;25.548;2024-02-23T08:39:32;16.77;;;10.73;;
77466;SDS011;66564;42.482;25.548;2024-02-23T08:41:59;13.82;;;9.98;;
77466;SDS011;66564;42.482;25.548;2024-02-23T08:44:24;15.25;;;9.80;;
77466;SDS011;66564;42.482;25.548;2024-02-23T08:46:50;15.15;;;9.50;;
77466;SDS011;66564;42.482;25.548;2024-02-23T08:49:15;15.50;;;9.50;;
77466;SDS011;66564;42.482;25.548;2024-02-23T08:51:40;13.70;;;8.88;;
77466;SDS011;66564;42.482;25.548;2024-02-23T08:54:06;13.95;;;10.57;;
77466;SDS011;66564;42.482;25.548;2024-02-23T08:56:39;15.45;;;10.75;;
77466;SDS011;66564;42.482;25.548;2024-02-23T08:59:07;11.82;;;9.15;;
77466;SDS011;66564;42.482;25.548;2024-02-23T09:01:32;14.30;;;9.68;;
77466;SDS011;66564;42.482;25.548;2024-02-23T09:03:58;15.63;;;8.50;;
77466;SDS011;66564;42.482;25.548;2024-02-23T09:06:23;12.30;;;8.18;;
77466;SDS011;66564;42.482;25.548;2024-02-23T09:08:48;11.38;;;8.30;;
77466;SDS011;66564;42.482;25.548;2024-02-23T09:11:14;11.65;;;7.95;;
77466;SDS011;66564;42.482;25.548;2024-02-23T09:13:40;11.85;;;7.47;;
77466;SDS011;66564;42.482;25.548;2024-02-23T09:16:07;13.20;;;8.43;;
77466;SDS011;66564;42.482;25.548;2024-02-23T09:18:33;13.13;;;8.32;;
77466;SDS011;66564;42.482;25.548;2024-02-23T09:20:59;10.93;;;8.02;;
77466;SDS011;66564;42.482;25.548;2024-02-23T09:23:25;11.00;;;7.97;;
77466;SDS011;66564;42.482;25.548;2024-02-23T09:25:51;11.18;;;8.27;;
77466;SDS011;66564;42.482;25.548;2024-02-23T09:28:16;10.57;;;8.27;;
77466;SDS011;66564;42.482;25.548;2024-02-23T09:30:42;13.18;;;7.90;;
77466;SDS011;66564;42.482;25.548;2024-02-23T09:33:07;12.35;;;9.27;;
77466;SDS011;66564;42.482;25.548;2024-02-23T09:35:33;10.93;;;7.93;;
77466;SDS011;66564;42.482;25.548;2024-02-23T09:37:59;10.93;;;7.93;;
77466;SDS011;66564;42.482;25.548;2024-02-23T09:40:24;12.20;;;8.15;;
77466;SDS011;66564;42.482;25.548;2024-02-23T09:42:51;9.30;;;6.65;;
77466;SDS011;66564;42.482;25.548;2024-02-23T09:45:21;11.52;;;5.43;;
77466;SDS011;66564;42.482;25.548;2024-02-23T09:47:47;10.38;;;5.72;;
77466;SDS011;66564;42.482;25.548;2024-02-23T09:50:13;9.25;;;5.82;;
77466;SDS011;66564;42.482;25.548;2024-02-23T09:52:40;11.27;;;7.43;;
77466;SDS011;66564;42.482;25.548;2024-02-23T09:55:06;8.68;;;5.93;;
77466;SDS011;66564;42.482;25.548;2024-02-23T09:57:32;8.82;;;6.07;;
77466;SDS011;66564;42.482;25.548;2024-02-23T09:59:58;11.93;;;6.00;;
77466;SDS011;66564;42.482;25.548;2024-02-23T10:02:23;8.05;;;5.70;;
77466;SDS011;66564;42.482;25.548;2024-02-23T10:04:50;9.05;;;6.63;;
77466;SDS011;66564;42.482;25.548;2024-02-23T10:07:16;8.07;;;5.43;;
77466;SDS011;66564;42.482;25.548;2024-02-23T10:09:42;13.20;;;7.05;;
77466;SDS011;66564;42.482;25.548;2024-02-23T10:12:07;11.25;;;7.18;;
77466;SDS011;66564;42.482;25.548;2024-02-23T10:14:36;8.63;;;5.57;;
77466;SDS011;66564;42.482;25.548;2024-02-23T10:17:01;8.80;;;6.00;;
77466;SDS011;66564;42.482;25.548;2024-02-23T10:19:27;11.45;;;7.03;;
77466;SDS011;66564;42.482;25.548;2024-02-23T10:21:54;8.63;;;7.00;;
77466;SDS011;66564;42.482;25.548;2024-02-23T10:24:21;9.43;;;6.25;;
77466;SDS011;66564;42.482;25.548;2024-02-23T10:26:47;7.97;;;5.75;;
77466;SDS011;66564;42.482;25.548;2024-02-23T10:29:13;11.13;;;5.57;;
77466;SDS011;66564;42.482;25.548;2024-02-23T10:31:39;7.25;;;5.43;;
77466;SDS011;66564;42.482;25.548;2024-02-23T10:34:07;7.22;;;5.13;;
77466;SDS011;66564;42.482;25.548;2024-02-23T10:36:37;9.23;;;5.80;;
77466;SDS011;66564;42.482;25.548;2024-02-23T10:39:07;12.55;;;8.30;;
77466;SDS011;66564;42.482;25.548;2024-02-23T10:41:34;13.68;;;8.73;;
77466;SDS011;66564;42.482;25.548;2024-02-23T10:44:04;11.88;;;8.80;;
77466;SDS011;66564;42.482;25.548;2024-02-23T10:46:31;11.80;;;7.57;;
77466;SDS011;66564;42.482;25.548;2024-02-23T10:48:58;13.50;;;7.57;;
77466;SDS011;66564;42.482;25.548;2024-02-23T10:51:27;9.82;;;7.32;;
77466;SDS011;66564;42.482;25.548;2024-02-23T10:53:53;10.48;;;7.00;;
77466;SDS011;66564;42.482;25.548;2024-02-23T10:56:20;12.13;;;8.02;;
77466;SDS011;66564;42.482;25.548;2024-02-23T10:58:47;13.60;;;7.70;;
77466;SDS011;66564;42.482;25.548;2024-02-23T11:01:13;10.15;;;7.53;;
77466;SDS011;66564;42.482;25.548;2024-02-23T11:03:40;9.32;;;6.55;;
77466;SDS011;66564;42.482;25.548;2024-02-23T11:06:07;9.77;;;6.82;;
77466;SDS011;66564;42.482;25.548;2024-02-23T11:08:33;19.10;;;8.55;;
77466;SDS011;66564;42.482;25.548;2024-02-23T11:11:10;11.10;;;7.40;;
77466;SDS011;66564;42.482;25.548;2024-02-23T11:13:37;11.63;;;8.15;;
77466;SDS011;66564;42.482;25.548;2024-02-23T11:16:04;11.85;;;7.88;;
77466;SDS011;66564;42.482;25.548;2024-02-23T11:18:31;10.10;;;8.25;;
77466;SDS011;66564;42.482;25.548;2024-02-23T11:21:00;18.15;;;7.05;;
77466;SDS011;66564;42.482;25.548;2024-02-23T11:23:38;12.18;;;7.57;;
77466;SDS011;66564;42.482;25.548;2024-02-23T11:26:11;9.98;;;7.05;;
77466;SDS011;66564;42.482;25.548;2024-02-23T11:28:43;9.25;;;7.50;;
77466;SDS011;66564;42.482;25.548;2024-02-23T11:31:19;11.98;;;7.97;;
77466;SDS011;66564;42.482;25.548;2024-02-23T11:33:55;11.88;;;8.23;;
77466;SDS011;66564;42.482;25.548;2024-02-23T11:36:34;9.60;;;7.38;;
77466;SDS011;66564;42.482;25.548;2024-02-23T11:39:01;10.18;;;6.70;;
77466;SDS011;66564;42.482;25.548;2024-02-23T11:41:27;9.55;;;6.97;;
77466;SDS011;66564;42.482;25.548;2024-02-23T11:43:54;10.93;;;7.63;;
77466;SDS011;66564;42.482;25.548;2024-02-23T11:46:20;9.60;;;7.45;;
77466;SDS011;66564;42.482;25.548;2024-02-23T11:48:47;15.70;;;5.78;;
77466;SDS011;66564;42.482;25.548;2024-02-23T11:51:18;9.23;;;6.22;;
77466;SDS011;66564;42.482;25.548;2024-02-23T11:53:49;8.50;;;5.80;;
77466;SDS011;66564;42.482;25.548;2024-02-23T11:56:15;10.63;;;5.60;;
77466;SDS011;66564;42.482;25.548;2024-02-23T11:58:42;7.75;;;5.47;;
77466;SDS011;66564;42.482;25.548;2024-02-23T12:01:08;11.45;;;6.53;;
77466;SDS011;66564;42.482;25.548;2024-02-23T12:03:34;6.32;;;4.60;;
77466;SDS011;66564;42.482;25.548;2024-02-23T12:06:00;8.93;;;5.97;;
77466;SDS011;66564;42.482;25.548;2024-02-23T12:08:27;8.98;;;5.97;;
77466;SDS011;66564;42.482;25.548;2024-02-23T12:10:54;8.15;;;6.28;;
77466;SDS011;66564;42.482;25.548;2024-02-23T12:13:20;9.27;;;5.97;;
77466;SDS011;66564;42.482;25.548;2024-02-23T12:15:46;7.75;;;5.53;;
77466;SDS011;66564;42.482;25.548;2024-02-23T12:18:12;10.20;;;6.15;;
77466;SDS011;66564;42.482;25.548;2024-02-23T12:20:39;10.02;;;6.40;;
77466;SDS011;66564;42.482;25.548;2024-02-23T12:23:05;8.23;;;5.72;;
77466;SDS011;66564;42.482;25.548;2024-02-23T12:25:32;11.02;;;5.93;;
77466;SDS011;66564;42.482;25.548;2024-02-23T12:27:58;7.47;;;5.75;;
77466;SDS011;66564;42.482;25.548;2024-02-23T12:30:25;29.23;;;7.60;;
77466;SDS011;66564;42.482;25.548;2024-02-23T12:32:51;9.80;;;5.05;;
77466;SDS011;66564;42.482;25.548;2024-02-23T12:35:27;8.63;;;5.95;;
77466;SDS011;66564;42.482;25.548;2024-02-23T12:37:53;7.60;;;5.50;;
77466;SDS011;66564;42.482;25.548;2024-02-23T12:40:18;6.70;;;5.35;;
77466;SDS011;66564;42.482;25.548;2024-02-23T12:42:44;8.77;;;5.53;;
77466;SDS011;66564;42.482;25.548;2024-02-23T12:45:10;8.60;;;5.60;;
77466;SDS011;66564;42.482;25.548;2024-02-23T12:47:36;6.90;;;5.18;;
77466;SDS011;66564;42.482;25.548;2024-02-23T12:50:01;7.80;;;5.72;;
77466;SDS011;66564;42.482;25.548;2024-02-23T12:52:27;9.80;;;5.80;;
77466;SDS011;66564;42.482;25.548;2024-02-23T12:54:52;9.45;;;5.43;;
77466;SDS011;66564;42.482;25.548;2024-02-23T12:57:18;7.90;;;5.53;;
77466;SDS011;66564;42.482;25.548;2024-02-23T12:59:43;6.90;;;4.65;;
77466;SDS011;66564;42.482;25.548;2024-02-23T13:02:08;7.05;;;5.03;;
77466;SDS011;66564;42.482;25.548;2024-02-23T13:04:36;6.03;;;4.53;;
77466;SDS011;66564;42.482;25.548;2024-02-23T13:07:02;6.18;;;4.70;;
77466;SDS011;66564;42.482;25.548;2024-02-23T13:09:27;6.82;;;4.25;;
77466;SDS011;66564;42.482;25.548;2024-02-23T13:11:53;8.65;;;4.10;;
77466;SDS011;66564;42.482;25.548;2024-02-23T13:14:18;6.38;;;4.50;;
77466;SDS011;66564;42.482;25.548;2024-02-23T13:16:44;7.57;;;4.05;;
77466;SDS011;66564;42.482;25.548;2024-02-23T13:19:09;6.22;;;4.22;;
77466;SDS011;66564;42.482;25.548;2024-02-23T13:21:35;6.35;;;4.78;;
77466;SDS011;66564;42.482;25.548;2024-02-23T13:24:00;12.07;;;4.45;;
77466;SDS011;66564;42.482;25.548;2024-02-23T13:26:26;5.53;;;4.15;;
77466;SDS011;66564;42.482;25.548;2024-02-23T13:28:51;5.35;;;4.07;;
77466;SDS011;66564;42.482;25.548;2024-02-23T13:31:16;6.25;;;4.50;;
77466;SDS011;66564;42.482;25.548;2024-02-23T13:33:42;6.32;;;4.53;;
77466;SDS011;66564;42.482;25.548;2024-02-23T13:36:08;5.97;;;4.28;;
77466;SDS011;66564;42.482;25.548;2024-02-23T13:38:34;6.00;;;4.38;;
77466;SDS011;66564;42.482;25.548;2024-02-23T13:41:03;6.82;;;3.88;;
77466;SDS011;66564;42.482;25.548;2024-02-23T13:43:29;7.65;;;4.43;;
77466;SDS011;66564;42.482;25.548;2024-02-23T13:45:55;6.65;;;4.90;;
77466;SDS011;66564;42.482;25.548;2024-02-23T13:48:21;5.78;;;3.85;;
77466;SDS011;66564;42.482;25.548;2024-02-23T13:50:47;5.88;;;4.55;;
77466;SDS011;66564;42.482;25.548;2024-02-23T13:53:13;6.95;;;4.55;;
77466;SDS011;66564;42.482;25.548;2024-02-23T13:55:40;5.47;;;3.90;;
77466;SDS011;66564;42.482;25.548;2024-02-23T13:58:09;6.00;;;3.80;;
77466;SDS011;66564;42.482;25.548;2024-02-23T14:00:34;4.47;;;3.33;;
77466;SDS011;66564;42.482;25.548;2024-02-23T14:03:00;6.20;;;3.78;;
77466;SDS011;66564;42.482;25.548;2024-02-23T14:05:25;5.40;;;3.97;;
77466;SDS011;66564;42.482;25.548;2024-02-23T14:07:51;7.22;;;4.43;;
77466;SDS011;66564;42.482;25.548;2024-02-23T14:10:21;12.32;;;4.03;;